Time;durP1;ratioP1;P1;durP2;ratioP2;P2;SDS_P1;SDS_P2;PMS_P1;PMS_P2;Temp;Humidity;BMP_temperature;BMP_pressure;BME280_temperature;BME280_humidity;BME280_pressure;Samples;Min_cycle;Max_cycle;Signal;HPM_P1;HPM_P2
2023/09/29 00:01:55;;;;;;;12.40;9.67;;;;;;;10.20;100.00;98124.22;6276178;28;20238;-90
2023/09/29 00:04:58;;;;;;;11.67;9.17;;;;;;;10.58;100.00;98193.91;6272367;28;20723;-89
2023/09/29 00:08:00;;;;;;;11.77;10.43;;;;;;;9.81;100.00;98073.19;6295911;28;20233;-89
2023/09/29 00:11:02;;;;;;;17.47;14.40;;;;;;;9.76;100.00;98059.75;6239757;28;20226;-89
2023/09/29 00:14:04;;;;;;;10.40;8.87;;;;;;;10.45;100.00;98195.97;6292845;28;20275;-89
2023/09/29 00:17:06;;;;;;;14.67;11.70;;;;;;;10.28;100.00;98175.31;6271579;28;20241;-89
2023/09/29 00:20:24;;;;;;;17.40;14.23;;;;;;;10.38;100.00;98192.59;6273384;28;20229;-89
2023/09/29 00:23:28;;;;;;;10.07;9.07;;;;;;;9.93;100.00;98113.13;6246917;28;20735;-89
2023/09/29 00:26:30;;;;;;;11.83;9.97;;;;;;;10.40;100.00;98207.31;6246765;28;20716;-89
2023/09/29 00:29:32;;;;;;;11.03;9.70;;;;;;;10.18;100.00;98171.53;6260050;28;20261;-89
2023/09/29 00:32:35;;;;;;;15.03;10.90;;;;;;;10.21;100.00;98168.44;6270779;28;20708;-89
2023/09/29 00:35:37;;;;;;;11.33;9.67;;;;;;;10.18;100.00;98184.84;6273526;28;20233;-89
2023/09/29 00:38:39;;;;;;;11.83;9.80;;;;;;;9.96;100.00;98148.09;6271971;28;20632;-89
2023/09/29 00:41:42;;;;;;;11.40;8.50;;;;;;;9.77;100.00;98114.59;6273796;28;20597;-89
2023/09/29 00:44:45;;;;;;;10.37;8.30;;;;;;;10.31;100.00;98201.50;6271675;28;20233;-89
2023/09/29 00:47:49;;;;;;;20.67;12.87;;;;;;;10.03;100.00;98178.09;6261152;28;20228;-89
2023/09/29 00:50:51;;;;;;;10.97;9.63;;;;;;;9.51;100.00;98115.75;6258072;28;20333;-89
2023/09/29 00:53:54;;;;;;;12.10;8.10;;;;;;;9.97;100.00;98176.34;6271938;28;20243;-88
2023/09/29 00:56:59;;;;;;;12.07;10.20;;;;;;;10.09;100.00;98185.16;6256629;28;20242;-89
2023/09/29 01:00:04;;;;;;;9.50;8.50;;;;;;;10.44;100.00;98236.94;6264053;28;20228;-89
2023/09/29 01:03:13;;;;;;;11.13;9.93;;;;;;;10.14;100.00;98202.31;6257890;28;20237;-89
2023/09/29 01:06:16;;;;;;;10.13;8.60;;;;;;;9.96;100.00;98181.91;6250883;28;20220;-89
2023/09/29 01:09:19;;;;;;;12.83;11.27;;;;;;;9.91;100.00;98185.22;6283804;28;20599;-89
2023/09/29 01:12:27;;;;;;;10.40;8.77;;;;;;;9.89;100.00;98176.63;6270671;28;20614;-89
2023/09/29 01:15:31;;;;;;;10.47;9.33;;;;;;;9.90;100.00;98182.78;6253199;28;20309;-89
2023/09/29 01:18:35;;;;;;;17.73;10.47;;;;;;;9.78;100.00;98172.09;6278206;28;20220;-93
2023/09/29 01:21:44;;;;;;;12.77;9.40;;;;;;;9.35;100.00;98093.22;6272036;28;20224;-93
2023/09/29 01:24:47;;;;;;;18.87;14.13;;;;;;;9.36;100.00;98088.72;6273350;28;20225;-93
2023/09/29 01:27:49;;;;;;;13.23;10.00;;;;;;;9.12;100.00;98082.50;6261401;28;20235;-89
2023/09/29 01:30:53;;;;;;;14.80;12.47;;;;;;;9.66;100.00;98153.41;6260583;28;20225;-89
2023/09/29 01:33:56;;;;;;;12.53;8.70;;;;;;;9.97;100.00;98188.84;6263333;28;20853;-89
2023/09/29 01:37:02;;;;;;;12.13;10.07;;;;;;;8.99;100.00;98043.59;6275844;28;20237;-89
2023/09/29 01:40:08;;;;;;;18.57;15.83;;;;;;;8.99;100.00;98044.38;6284575;28;20279;-92
2023/09/29 01:43:10;;;;;;;22.13;14.17;;;;;;;9.01;100.00;98050.31;6278722;28;20243;-93
2023/09/29 01:46:15;;;;;;;12.83;9.50;;;;;;;8.93;100.00;98025.88;6264687;28;20323;-92
2023/09/29 01:49:17;;;;;;;11.57;8.87;;;;;;;9.12;100.00;98090.47;6280506;28;20304;-89
2023/09/29 01:52:22;;;;;;;9.27;8.37;;;;;;;9.14;100.00;98077.75;6272713;28;20247;-89
2023/09/29 01:55:27;;;;;;;10.03;8.70;;;;;;;9.72;100.00;98167.66;6265727;28;20267;-89
2023/09/29 01:58:31;;;;;;;12.03;8.60;;;;;;;9.71;100.00;98174.03;6276560;28;20240;-89
2023/09/29 02:01:35;;;;;;;9.17;8.27;;;;;;;9.67;100.00;98160.34;6277452;28;20232;-89
2023/09/29 02:04:37;;;;;;;10.07;8.33;;;;;;;9.48;100.00;98138.28;6260859;28;20725;-88
2023/09/29 02:07:40;;;;;;;11.90;8.97;;;;;;;9.66;100.00;98176.53;6265232;28;20223;-89
2023/09/29 02:10:42;;;;;;;11.43;9.00;;;;;;;8.83;100.00;98037.03;6278753;28;20260;-89
2023/09/29 02:13:44;;;;;;;10.53;8.80;;;;;;;9.80;100.00;98194.78;6281146;28;20605;-89
2023/09/29 02:16:48;;;;;;;12.03;8.77;;;;;;;9.20;100.00;98090.13;6296346;28;20235;-90
2023/09/29 02:19:52;;;;;;;10.53;8.40;;;;;;;9.55;100.00;98162.94;6286625;28;20235;-94
2023/09/29 02:22:59;;;;;;;11.73;8.63;;;;;;;8.99;100.00;98076.28;6266238;28;20225;-92
2023/09/29 02:26:02;;;;;;;12.10;9.03;;;;;;;9.80;100.00;98205.44;6293670;28;20244;-93
2023/09/29 02:29:05;;;;;;;11.87;8.90;;;;;;;9.83;100.00;98220.13;6264758;28;20239;-89
2023/09/29 02:32:07;;;;;;;11.13;8.97;;;;;;;9.54;100.00;98193.22;6278405;28;20217;-89
2023/09/29 02:35:10;;;;;;;11.07;7.73;;;;;;;9.90;100.00;98241.31;6292417;28;20242;-89
2023/09/29 02:38:13;;;;;;;12.60;7.87;;;;;;;9.59;100.00;98183.78;6274836;28;20233;-88
2023/09/29 02:41:16;;;;;;;11.17;8.67;;;;;;;9.33;100.00;98150.34;6255553;28;20232;-89
2023/09/29 02:44:18;;;;;;;9.80;8.07;;;;;;;9.28;100.00;98151.00;6294279;28;20713;-89
2023/09/29 02:47:20;;;;;;;9.57;8.60;;;;;;;9.32;100.00;98157.50;6282762;28;20759;-89
2023/09/29 02:50:24;;;;;;;9.67;8.40;;;;;;;9.34;100.00;98160.75;6266861;28;20367;-89
2023/09/29 02:53:27;;;;;;;10.50;8.67;;;;;;;9.52;100.00;98192.66;6277982;28;20247;-89
2023/09/29 02:56:30;;;;;;;11.63;8.90;;;;;;;9.48;100.00;98180.81;6256745;28;20241;-89
2023/09/29 02:59:33;;;;;;;12.53;9.30;;;;;;;9.46;100.00;98182.91;6273549;28;20229;-89
2023/09/29 03:02:36;;;;;;;9.47;8.30;;;;;;;9.77;100.00;98216.50;6258979;28;20240;-89
2023/09/29 03:05:40;;;;;;;9.73;8.23;;;;;;;8.65;100.00;98075.00;6291685;28;20284;-90
2023/09/29 03:08:42;;;;;;;10.90;8.40;;;;;;;9.38;100.00;98185.84;6297948;28;20275;-89
2023/09/29 03:11:44;;;;;;;8.40;7.43;;;;;;;8.97;100.00;98118.22;6267390;28;20703;-89
2023/09/29 03:14:46;;;;;;;10.67;8.93;;;;;;;8.41;100.00;98022.75;6269384;28;20604;-89
2023/09/29 03:17:50;;;;;;;10.83;8.70;;;;;;;9.36;100.00;98173.81;6278949;28;20263;-88
2023/09/29 03:20:52;;;;;;;13.13;8.53;;;;;;;9.21;100.00;98163.53;6247290;28;20603;-89
2023/09/29 03:23:54;;;;;;;9.50;7.67;;;;;;;8.55;100.00;98056.09;6275327;28;20243;-89
2023/09/29 03:26:58;;;;;;;9.70;8.43;;;;;;;8.52;100.00;98068.00;6270399;28;20752;-89
2023/09/29 03:30:01;;;;;;;10.60;8.57;;;;;;;9.36;100.00;98190.59;6259767;28;20728;-90
2023/09/29 03:33:04;;;;;;;12.43;8.23;;;;;;;9.04;100.00;98148.16;6295195;28;20221;-89
2023/09/29 03:36:06;;;;;;;9.63;8.50;;;;;;;8.83;100.00;98119.38;6277869;28;20695;-89
2023/09/29 03:39:09;;;;;;;9.40;8.03;;;;;;;9.02;100.00;98147.59;6280335;28;20686;-88
2023/09/29 03:42:11;;;;;;;9.90;8.37;;;;;;;8.52;100.00;98059.19;6259091;28;20228;-89
2023/09/29 03:45:14;;;;;;;9.67;8.53;;;;;;;9.23;100.00;98177.44;6255041;28;20221;-89
2023/09/29 03:48:17;;;;;;;8.67;7.77;;;;;;;9.37;100.00;98192.22;6255843;28;20214;-92
2023/09/29 03:51:24;;;;;;;8.53;7.63;;;;;;;8.82;100.00;98099.16;6278663;28;20212;-93
2023/09/29 03:54:29;;;;;;;9.43;7.63;;;;;;;9.25;100.00;98164.72;6264818;28;20284;-93
2023/09/29 03:57:32;;;;;;;9.03;8.10;;;;;;;9.44;100.00;98205.44;6276544;28;20228;-92
2023/09/29 04:00:34;;;;;;;8.97;7.93;;;;;;;8.91;100.00;98164.25;6276806;28;20231;-93
2023/09/29 04:03:36;;;;;;;9.20;8.13;;;;;;;9.50;100.00;98218.63;6270303;28;20234;-92
2023/09/29 04:06:39;;;;;;;9.07;7.33;;;;;;;9.03;100.00;98151.06;6266472;28;22274;-92
2023/09/29 04:09:42;;;;;;;9.30;8.10;;;;;;;8.81;100.00;98129.38;6278327;28;20237;-92
2023/09/29 04:12:47;;;;;;;12.77;8.37;;;;;;;8.67;100.00;98096.84;6261640;28;20238;-92
2023/09/29 04:15:51;;;;;;;8.80;7.90;;;;;;;9.41;100.00;98227.13;6259804;28;20236;-92
2023/09/29 04:18:53;;;;;;;13.20;8.37;;;;;;;9.19;100.00;98203.63;6264733;28;20235;-92
2023/09/29 04:21:57;;;;;;;9.93;8.07;;;;;;;8.36;100.00;98086.25;6292774;28;20268;-92
2023/09/29 04:25:00;;;;;;;13.47;8.03;;;;;;;8.13;100.00;98042.56;6293141;28;20251;-92
2023/09/29 04:28:03;;;;;;;9.37;8.03;;;;;;;8.28;100.00;98071.44;6293224;28;20232;-92
2023/09/29 04:31:05;;;;;;;11.07;8.43;;;;;;;8.48;100.00;98113.78;6252436;28;20227;-92
2023/09/29 04:34:07;;;;;;;9.90;8.60;;;;;;;9.38;100.00;98223.09;6260465;28;20691;-92
2023/09/29 04:37:10;;;;;;;11.03;8.03;;;;;;;9.37;100.00;98226.78;6272547;28;20749;-91
2023/09/29 04:40:13;;;;;;;10.97;8.53;;;;;;;9.32;100.00;98221.31;6278000;28;20224;-92
2023/09/29 04:43:16;;;;;;;8.83;7.87;;;;;;;8.46;100.00;98089.28;6282466;28;20240;-92
2023/09/29 04:46:19;;;;;;;10.93;8.93;;;;;;;8.01;100.00;98031.84;6262549;28;20241;-91
2023/09/29 04:49:22;;;;;;;8.73;7.93;;;;;;;8.87;100.00;98164.94;6283785;28;20283;-93
2023/09/29 04:52:26;;;;;;;10.27;7.90;;;;;;;9.30;100.00;98236.66;6262726;28;20227;-91
2023/09/29 04:55:28;;;;;;;9.93;8.37;;;;;;;8.17;100.00;98074.78;6286773;28;20244;-93
2023/09/29 04:58:31;;;;;;;10.73;8.03;;;;;;;8.81;100.00;98153.31;6274993;28;20242;-91
2023/09/29 05:01:33;;;;;;;9.70;8.70;;;;;;;9.33;100.00;98235.41;6263518;28;20322;-93
2023/09/29 05:04:36;;;;;;;10.93;7.80;;;;;;;8.50;100.00;98107.19;6296489;28;20496;-92
2023/09/29 05:07:39;;;;;;;9.00;7.77;;;;;;;8.56;100.00;98153.31;6259477;28;20231;-92
2023/09/29 05:10:43;;;;;;;9.70;7.40;;;;;;;8.46;100.00;98115.81;6254141;28;20237;-91
2023/09/29 05:13:47;;;;;;;8.30;7.50;;;;;;;9.08;100.00;98236.25;6276829;28;20227;-93
2023/09/29 05:16:50;;;;;;;8.40;7.23;;;;;;;8.61;100.00;98152.66;6289721;28;20264;-92
2023/09/29 05:19:52;;;;;;;12.37;8.53;;;;;;;8.30;100.00;98080.00;6279487;28;20315;-92
2023/09/29 05:22:54;;;;;;;9.37;8.50;;;;;;;9.03;100.00;98217.50;6276641;28;20226;-92
2023/09/29 05:26:02;;;;;;;12.13;8.00;;;;;;;9.14;100.00;98214.13;6267173;28;20760;-91
2023/09/29 05:29:04;;;;;;;11.37;8.17;;;;;;;8.85;100.00;98180.25;6278631;28;20228;-92
2023/09/29 05:32:06;;;;;;;11.00;8.23;;;;;;;8.78;100.00;98161.72;6269162;28;20229;-91
2023/09/29 05:35:09;;;;;;;14.23;8.07;;;;;;;8.79;100.00;98144.75;6285034;28;20321;-93
2023/09/29 05:38:11;;;;;;;13.77;8.33;;;;;;;9.46;100.00;98243.25;6274714;28;20247;-91
2023/09/29 05:41:13;;;;;;;9.90;8.40;;;;;;;8.26;100.00;98073.47;6282852;28;20224;-92
2023/09/29 05:44:16;;;;;;;10.00;7.90;;;;;;;8.91;100.00;98163.44;6302520;28;20260;-92
2023/09/29 05:47:19;;;;;;;10.43;8.17;;;;;;;9.29;100.00;98216.41;6277625;28;20239;-92
2023/09/29 05:50:22;;;;;;;10.70;8.13;;;;;;;9.28;100.00;98212.94;6299853;28;20228;-91
2023/09/29 05:53:24;;;;;;;18.50;8.20;;;;;;;8.39;100.00;98081.38;6303092;28;20235;-91
2023/09/29 05:56:29;;;;;;;11.00;7.67;;;;;;;8.80;100.00;98138.41;6264072;28;20236;-93
2023/09/29 05:59:31;;;;;;;9.57;7.23;;;;;;;8.82;100.00;98139.00;6270756;28;20614;-92
2023/09/29 06:02:35;;;;;;;8.60;7.70;;;;;;;9.10;100.00;98186.34;6274445;28;20232;-92
2023/09/29 06:05:38;;;;;;;8.50;7.30;;;;;;;8.52;100.00;98099.00;6271527;28;20708;-92
2023/09/29 06:08:42;;;;;;;8.77;7.33;;;;;;;9.38;100.00;98223.09;6268408;28;20235;-91
2023/09/29 06:11:56;;;;;;;10.30;8.13;;;;;;;9.77;100.00;98272.38;6304218;28;20337;-92
2023/09/29 06:14:59;;;;;;;8.83;7.80;;;;;;;9.81;100.00;98273.56;6257276;28;20230;-93
2023/09/29 06:18:01;;;;;;;8.33;7.57;;;;;;;8.83;100.00;98118.56;6271581;28;20249;-92
2023/09/29 06:21:04;;;;;;;8.23;7.30;;;;;;;9.72;100.00;98255.47;6248223;28;20233;-92
2023/09/29 06:24:06;;;;;;;9.47;7.43;;;;;;;9.65;100.00;98244.06;6257520;28;20890;-93
2023/09/29 06:27:08;;;;;;;8.37;7.33;;;;;;;8.74;100.00;98097.59;6288117;28;20227;-92
2023/09/29 06:30:11;;;;;;;8.77;7.13;;;;;;;9.07;100.00;98146.94;6278150;28;20568;-92
2023/09/29 06:33:14;;;;;;;7.60;6.83;;;;;;;9.80;100.00;98252.47;6285304;28;20216;-92
2023/09/29 06:36:17;;;;;;;8.53;7.73;;;;;;;9.81;100.00;98243.50;6252928;28;20351;-92
2023/09/29 06:39:19;;;;;;;7.30;6.60;;;;;;;9.68;100.00;98220.50;6253951;28;20221;-93
2023/09/29 06:42:21;;;;;;;7.27;6.50;;;;;;;9.74;100.00;98224.13;6282079;28;20634;-92
2023/09/29 06:45:27;;;;;;;8.37;7.57;;;;;;;9.95;100.00;98246.78;6257968;28;20225;-92
2023/09/29 06:48:50;;;;;;;8.47;7.53;;;;;;;9.40;100.00;98154.53;6250626;28;20269;-91
2023/09/29 06:51:52;;;;;;;8.73;7.83;;;;;;;10.08;100.00;98254.59;6277403;28;20589;-92
2023/09/29 06:54:54;;;;;;;8.60;7.60;;;;;;;10.11;100.00;98246.19;6273563;28;20228;-90
2023/09/29 06:57:59;;;;;;;10.23;8.10;;;;;;;9.48;100.00;98124.97;6272527;28;20561;-91
2023/09/29 07:01:02;;;;;;;9.60;8.57;;;;;;;10.45;100.00;98273.22;6273479;28;20332;-93
2023/09/29 07:04:05;;;;;;;9.50;7.90;;;;;;;10.44;100.00;98250.25;6273935;28;20332;-92
2023/09/29 07:07:10;;;;;;;8.23;7.43;;;;;;;9.85;100.00;98148.84;6294176;28;20252;-92
2023/09/29 07:10:14;;;;;;;9.13;7.83;;;;;;;11.10;100.00;98303.41;6284069;28;20236;-91
2023/09/29 07:13:16;;;;;;;8.87;7.63;;;;;;;11.24;100.00;98308.53;6286425;28;20237;-91
2023/09/29 07:16:19;;;;;;;8.60;7.70;;;;;;;10.57;100.00;98176.28;6271779;28;20259;-92
2023/09/29 07:19:25;;;;;;;8.43;7.20;;;;;;;10.35;100.00;98113.97;6301107;28;20244;-93
2023/09/29 07:22:36;;;;;;;7.10;6.40;;;;;;;10.67;100.00;98121.63;6266802;28;20268;-92
2023/09/29 07:25:40;;;;;;;9.07;6.50;;;;;;;11.57;100.00;98228.69;6244182;28;20253;-94
2023/09/29 07:28:43;;;;;;;8.93;7.10;;;;;;;11.45;100.00;98179.88;6272012;28;20245;-88
2023/09/29 07:31:49;;;;;;;7.10;6.40;;;;;;;11.53;100.00;98154.72;6294580;28;20233;-88
2023/09/29 07:34:51;;;;;;;10.03;7.07;;;;;;;12.34;100.00;98241.75;6267566;28;20230;-88
2023/09/29 07:37:53;;;;;;;9.13;7.10;;;;;;;12.29;100.00;98201.56;6257268;28;20312;-88
2023/09/29 07:40:55;;;;;;;9.07;6.83;;;;;;;12.55;100.00;98215.38;6270567;28;20324;-89
2023/09/29 07:44:01;;;;;;;8.93;6.07;;;;;;;12.92;100.00;98226.44;6272736;28;20719;-90
2023/09/29 07:47:03;;;;;;;6.57;5.97;;;;;;;13.42;99.44;98252.38;6267729;28;20672;-89
2023/09/29 07:50:07;;;;;;;7.93;6.23;;;;;;;13.79;99.09;98275.88;6271102;28;20225;-88
2023/09/29 07:53:11;;;;;;;6.13;5.53;;;;;;;13.72;99.06;98233.22;6276050;28;20234;-88
2023/09/29 07:56:13;;;;;;;6.43;5.83;;;;;;;14.08;98.99;98261.25;6296360;28;20226;-87
2023/09/29 07:59:18;;;;;;;7.67;5.53;;;;;;;14.56;97.97;98304.44;6256066;28;20236;-88
2023/09/29 08:02:21;;;;;;;6.37;5.77;;;;;;;14.72;96.80;98311.56;6270197;28;20857;-88
2023/09/29 08:05:24;;;;;;;5.90;5.30;;;;;;;14.90;96.17;98313.09;6273574;28;20234;-88
2023/09/29 08:08:26;;;;;;;5.07;4.60;;;;;;;13.84;94.12;98126.81;6294668;28;20711;-88
2023/09/29 08:11:28;;;;;;;5.17;4.67;;;;;;;14.78;92.52;98248.06;6267114;28;20316;-89
2023/09/29 08:14:31;;;;;;;5.50;5.00;;;;;;;14.78;93.25;98223.91;6276052;28;20240;-88
2023/09/29 08:17:34;;;;;;;5.00;4.53;;;;;;;14.39;93.44;98147.16;6254518;28;20722;-89
2023/09/29 08:20:37;;;;;;;5.40;4.80;;;;;;;14.10;92.56;98071.59;6272577;28;20640;-90
2023/09/29 08:23:39;;;;;;;5.63;4.80;;;;;;;15.00;92.63;98187.09;6272267;28;20245;-89
2023/09/29 08:26:42;;;;;;;5.20;4.70;;;;;;;15.59;92.20;98267.47;6305479;28;20325;-88
2023/09/29 08:29:44;;;;;;;6.90;4.70;;;;;;;15.36;91.03;98190.00;6279681;28;20225;-88
2023/09/29 08:32:48;;;;;;;5.20;4.70;;;;;;;15.91;88.86;98278.16;6272950;28;20599;-89
2023/09/29 08:36:04;;;;;;;6.20;4.37;;;;;;;15.90;86.69;98246.97;6274162;28;20260;-89
2023/09/29 08:39:07;;;;;;;6.53;4.50;;;;;;;15.87;85.06;98201.03;6281918;28;20203;-92
2023/09/29 08:42:35;;;;;;;8.67;4.47;;;;;;;16.46;85.54;98284.81;6277722;28;20218;-94
2023/09/29 08:45:43;;;;;;;4.80;4.37;;;;;;;16.56;85.06;98294.00;6276276;28;20696;-94
2023/09/29 08:48:47;;;;;;;6.30;4.43;;;;;;;16.14;84.26;98180.13;6244885;28;20738;-96
2023/09/29 08:51:52;;;;;;;5.70;4.50;;;;;;;16.34;83.65;98198.19;6262488;28;20595;-94
2023/09/29 08:54:56;;;;;;;8.60;4.87;;;;;;;17.32;83.77;98325.59;6274626;28;20230;-95
2023/09/29 08:58:02;;;;;;;7.67;4.47;;;;;;;16.49;81.31;98167.81;6280044;28;20296;-96
2023/09/29 09:01:06;;;;;;;5.60;5.10;;;;;;;17.40;82.23;98287.34;6269604;28;20272;-95
2023/09/29 09:04:08;;;;;;;5.27;4.60;;;;;;;17.82;80.36;98330.16;6242573;28;20237;-95
2023/09/29 09:07:12;;;;;;;5.60;4.90;;;;;;;17.67;80.49;98287.03;6292669;28;20232;-94
2023/09/29 09:10:32;;;;;;;6.70;5.00;;;;;;;17.30;78.24;98202.00;6256479;28;20719;-93
2023/09/29 09:13:36;;;;;;;9.67;4.87;;;;;;;18.16;75.69;98327.63;6259369;28;20237;-93
2023/09/29 09:16:40;;;;;;;5.37;4.13;;;;;;;17.15;75.92;98140.09;6280869;28;20758;-96
2023/09/29 09:19:51;;;;;;;8.07;4.70;;;;;;;18.56;74.68;98326.66;6259889;28;20230;-95
2023/09/29 09:22:58;;;;;;;7.23;4.67;;;;;;;17.12;72.54;98090.28;6274835;28;20308;-96
2023/09/29 09:26:10;;;;;;;8.37;4.80;;;;;;;18.03;73.65;98215.00;6251183;28;20242;-92
2023/09/29 09:29:16;;;;;;;6.30;4.47;;;;;;;17.81;72.20;98141.78;6274999;28;20237;-95
2023/09/29 09:32:26;;;;;;;7.73;4.40;;;;;;;19.05;72.44;98328.53;6274887;28;20226;-94
2023/09/29 09:35:29;;;;;;;4.73;4.17;;;;;;;18.85;68.04;98274.69;6254111;28;20610;-96
2023/09/29 09:38:33;;;;;;;6.20;4.60;;;;;;;18.43;66.10;98197.78;6289467;28;20500;-93
2023/09/29 09:41:38;;;;;;;8.93;4.83;;;;;;;19.11;67.88;98258.28;6276436;28;20226;-93
2023/09/29 09:44:43;;;;;;;4.60;3.87;;;;;;;18.77;62.80;98208.63;6272225;28;20226;-95
2023/09/29 09:47:46;;;;;;;6.10;4.13;;;;;;;19.41;62.18;98274.25;6256863;28;20232;-93
2023/09/29 09:50:52;;;;;;;5.30;4.33;;;;;;;19.86;56.11;98293.84;6295124;28;20229;-94
2023/09/29 09:54:02;;;;;;;7.93;4.33;;;;;;;19.95;60.69;98292.13;6285247;28;20225;-94
2023/09/29 09:57:10;;;;;;;7.60;4.30;;;;;;;19.93;59.92;98250.22;6273102;28;20241;-96
2023/09/29 10:00:15;;;;;;;7.03;4.00;;;;;;;20.02;59.94;98243.88;6258329;28;20582;-95
2023/09/29 10:03:40;;;;;;;5.60;3.97;;;;;;;18.82;58.69;98070.13;6258834;28;20210;-95
2023/09/29 10:06:45;;;;;;;5.10;3.90;;;;;;;19.55;59.16;98156.25;6260266;28;20230;-95
2023/09/29 10:09:49;;;;;;;6.37;4.37;;;;;;;19.78;55.41;98189.81;6259245;28;20236;-95
2023/09/29 10:12:55;;;;;;;5.17;4.00;;;;;;;20.21;52.96;98186.31;6253841;28;20661;-95
2023/09/29 10:16:00;;;;;;;8.17;3.73;;;;;;;20.80;57.96;98272.34;6256645;28;20237;-94
2023/09/29 10:19:12;;;;;;;8.60;4.20;;;;;;;20.95;52.46;98292.97;6306580;28;20226;-93
2023/09/29 10:22:29;;;;;;;5.20;4.27;;;;;;;21.15;53.95;98291.84;6275271;28;20709;-95
2023/09/29 10:25:37;;;;;;;4.97;3.87;;;;;;;20.95;52.89;98256.97;6257131;28;20231;-95
2023/09/29 10:29:00;;;;;;;7.73;4.10;;;;;;;19.87;49.82;98052.09;6272704;28;20279;-95
2023/09/29 10:32:12;;;;;;;6.53;4.40;;;;;;;20.52;48.90;98130.63;6255758;28;20226;-95
2023/09/29 10:35:19;;;;;;;5.20;4.17;;;;;;;20.85;51.64;98172.06;6273072;28;20240;-95
2023/09/29 10:38:29;;;;;;;6.63;3.80;;;;;;;20.31;47.74;98078.72;6284011;28;20232;-94
2023/09/29 10:41:34;;;;;;;5.83;3.73;;;;;;;20.78;49.52;98158.09;6291385;28;20248;-96
2023/09/29 10:44:47;;;;;;;8.53;4.50;;;;;;;20.28;50.21;98035.22;6308805;28;20634;-96
2023/09/29 10:47:49;;;;;;;8.30;4.23;;;;;;;22.34;47.59;98294.88;6286415;22;20234;-52
2023/09/29 10:50:52;;;;;;;6.13;4.30;;;;;;;22.47;46.88;98285.91;6280332;28;20883;-52
2023/09/29 10:53:55;;;;;;;11.37;4.07;;;;;;;22.59;44.28;98288.09;6280065;28;20576;-54
2023/09/29 10:56:58;;;;;;;7.77;4.00;;;;;;;22.57;46.07;98295.75;6264174;28;20232;-56
2023/09/29 11:03:38;;;;;;;4.67;3.80;;;;;;;22.45;45.29;98271.03;5495800;23;20226;-54
2023/09/29 11:06:46;;;;;;;5.60;3.60;;;;;;;22.64;44.86;98279.84;6295625;28;20605;-53
2023/09/29 11:09:49;;;;;;;10.10;3.90;;;;;;;22.67;45.05;98271.09;6289849;28;20225;-53
2023/09/29 11:12:51;;;;;;;6.10;3.60;;;;;;;22.72;44.48;98273.69;6291496;28;20233;-52
2023/09/29 11:15:55;;;;;;;10.07;4.03;;;;;;;22.88;43.51;98272.25;6293513;28;20218;-53
2023/09/29 11:19:15;;;;;;;8.90;4.83;;;;;;;23.01;40.46;98259.72;6276130;28;20248;-54
2023/09/29 11:22:18;;;;;;;6.93;3.80;;;;;;;23.01;42.70;98262.44;6286805;28;20307;-54
2023/09/29 11:25:20;;;;;;;7.93;4.20;;;;;;;23.10;41.46;98259.78;6275247;28;20233;-54
2023/09/29 11:28:24;;;;;;;7.67;4.20;;;;;;;23.32;41.71;98243.44;6287825;28;20379;-54
2023/09/29 11:31:26;;;;;;;5.65;4.28;;;;;;;23.26;41.75;98231.09;6294476;28;20325;-53
2023/09/29 11:34:29;;;;;;;5.80;3.80;;;;;;;23.52;41.89;98252.19;6296814;28;20245;-52
2023/09/29 11:37:32;;;;;;;9.82;4.40;;;;;;;23.69;40.53;98241.41;6294670;28;20226;-52
2023/09/29 11:40:34;;;;;;;5.68;4.07;;;;;;;23.66;40.97;98236.63;6293005;28;20230;-53
2023/09/29 11:43:39;;;;;;;4.97;3.65;;;;;;;23.75;40.69;98233.94;6295305;28;20240;-53
2023/09/29 11:46:42;;;;;;;8.25;4.47;;;;;;;23.81;40.56;98236.19;6297235;28;20230;-53
2023/09/29 11:49:44;;;;;;;6.07;3.65;;;;;;;23.80;40.87;98228.34;6290274;28;20238;-53
2023/09/29 11:52:46;;;;;;;8.13;3.65;;;;;;;23.91;39.88;98207.91;6276721;28;20608;-54
2023/09/29 11:55:49;;;;;;;4.85;3.67;;;;;;;23.91;40.56;98218.78;6272937;28;20244;-54
2023/09/29 11:58:52;;;;;;;3.80;3.40;;;;;;;23.60;40.67;98172.56;6276275;28;20233;-55
2023/09/29 12:01:54;;;;;;;7.50;3.83;;;;;;;23.87;39.70;98218.59;6294681;28;20246;-53
2023/09/29 12:04:57;;;;;;;5.10;3.45;;;;;;;23.76;41.57;98202.88;6294052;28;20230;-55
2023/09/29 12:07:59;;;;;;;6.40;3.83;;;;;;;23.97;39.46;98200.38;6276011;28;20219;-52
2023/09/29 12:11:05;;;;;;;8.32;3.50;;;;;;;23.94;40.23;98205.34;6286296;28;20366;-54
2023/09/29 12:14:08;;;;;;;4.25;3.45;;;;;;;23.97;39.82;98205.81;6275877;28;21085;-51
2023/09/29 12:17:10;;;;;;;5.57;3.60;;;;;;;23.89;40.42;98197.34;6294779;28;20224;-56
2023/09/29 12:20:16;;;;;;;7.93;3.70;;;;;;;23.83;40.96;98190.41;6292405;28;20302;-53
2023/09/29 12:23:18;;;;;;;6.97;3.60;;;;;;;23.88;39.95;98186.75;6293511;28;20713;-49
2023/09/29 12:26:20;;;;;;;4.68;3.40;;;;;;;24.00;38.79;98200.56;6275968;28;20363;-54
2023/09/29 12:36:13;;;;;;;8.80;3.80;;;;;;;24.02;37.53;98184.69;6245594;28;20255;-60
2023/09/29 12:39:15;;;;;;;5.50;3.60;;;;;;;24.06;38.01;98179.44;6240966;28;20310;-60
2023/09/29 12:42:18;;;;;;;4.68;3.20;;;;;;;24.01;39.06;98176.84;6243506;28;20882;-59
2023/09/29 12:45:21;;;;;;;8.02;3.33;;;;;;;23.91;40.20;98183.41;6240680;28;20243;-59
2023/09/29 12:48:23;;;;;;;7.40;3.28;;;;;;;23.79;40.43;98173.13;6237443;28;20281;-59
2023/09/29 12:51:26;;;;;;;7.00;3.33;;;;;;;23.73;42.60;98170.84;6222530;28;20716;-59
2023/09/29 12:54:30;;;;;;;11.95;4.32;;;;;;;23.66;39.80;98169.41;6242142;28;20227;-60
2023/09/29 12:57:32;;;;;;;5.95;3.13;;;;;;;23.70;41.37;98172.31;6217010;28;20780;-59
2023/09/29 13:00:35;;;;;;;5.95;3.63;;;;;;;23.66;41.40;98163.16;6240593;28;20226;-59
2023/09/29 13:03:38;;;;;;;6.80;3.58;;;;;;;23.55;43.50;98156.38;6241423;28;20230;-58
2023/09/29 13:06:40;;;;;;;8.55;3.50;;;;;;;23.54;40.27;98161.00;6258494;28;20227;-59
2023/09/29 13:09:42;;;;;;;5.25;3.30;;;;;;;23.65;39.33;98150.69;6225191;28;20732;-59
2023/09/29 13:12:46;;;;;;;5.78;3.30;;;;;;;23.63;40.29;98161.03;6241512;28;20223;-59
2023/09/29 13:15:51;;;;;;;4.97;3.30;;;;;;;23.54;41.47;98162.91;6240078;28;20322;-59
2023/09/29 13:18:54;;;;;;;5.28;3.42;;;;;;;23.57;40.24;98151.44;6241333;28;20231;-58
2023/09/29 13:21:56;;;;;;;5.45;3.45;;;;;;;23.53;39.82;98145.00;6236494;28;20599;-59
2023/09/29 13:24:58;;;;;;;5.60;3.25;;;;;;;23.48;40.81;98150.59;6235789;28;20242;-59
2023/09/29 13:28:00;;;;;;;5.70;3.17;;;;;;;23.33;42.59;98140.94;6241841;28;20300;-57
2023/09/29 13:31:05;;;;;;;5.00;3.17;;;;;;;23.25;42.97;98149.84;6241115;28;20222;-60
2023/09/29 13:34:07;;;;;;;5.72;3.63;;;;;;;23.31;40.81;98135.81;6241064;28;20787;-58
2023/09/29 13:37:11;;;;;;;9.60;3.60;;;;;;;23.58;37.55;98145.66;6239006;28;20231;-59
2023/09/29 13:40:14;;;;;;;4.47;2.85;;;;;;;23.67;36.76;98130.19;6241676;28;20243;-60
2023/09/29 13:43:17;;;;;;;2.90;2.60;;;;;;;23.66;37.38;98133.25;6238857;28;20235;-59
2023/09/29 13:46:19;;;;;;;5.20;3.00;;;;;;;23.55;39.00;98130.00;6239032;28;20262;-56
2023/09/29 13:49:21;;;;;;;5.47;3.60;;;;;;;23.38;40.56;98138.88;6234748;28;20235;-59
2023/09/29 13:52:24;;;;;;;6.05;3.30;;;;;;;23.24;40.52;98130.03;6247443;28;20199;-59
2023/09/29 13:55:26;;;;;;;4.22;3.38;;;;;;;23.20;40.91;98133.69;6238026;28;20700;-60
2023/09/29 13:58:28;;;;;;;3.83;3.50;;;;;;;23.03;42.89;98127.06;6244616;28;20231;-60
2023/09/29 14:01:30;;;;;;;3.88;3.08;;;;;;;22.88;44.42;98125.53;6240149;28;20231;-58
2023/09/29 14:04:39;;;;;;;9.98;5.65;;;;;;;22.77;44.56;98124.16;6241065;28;20223;-59
2023/09/29 14:07:41;;;;;;;3.47;2.97;;;;;;;22.65;43.23;98126.63;6233455;28;20235;-59
2023/09/29 14:10:44;;;;;;;6.72;3.53;;;;;;;22.64;40.36;98116.88;6242111;28;20365;-59
2023/09/29 14:13:59;;;;;;;3.70;3.03;;;;;;;22.73;42.51;98120.47;6215356;28;22279;-57
2023/09/29 14:17:02;;;;;;;3.92;3.05;;;;;;;22.58;43.42;98115.41;6236734;28;20221;-59
2023/09/29 14:20:08;;;;;;;5.40;3.37;;;;;;;22.40;43.84;98103.63;6246489;28;20239;-59
2023/09/29 14:23:11;;;;;;;7.50;3.47;;;;;;;22.66;39.31;98117.41;6253840;28;20224;-58
2023/09/29 14:26:13;;;;;;;4.03;3.22;;;;;;;22.92;41.16;98115.66;6238965;28;20240;-60
2023/09/29 14:29:17;;;;;;;4.95;3.15;;;;;;;22.80;41.92;98109.16;6235316;28;20231;-61
2023/09/29 14:32:19;;;;;;;3.83;3.00;;;;;;;22.68;42.21;98109.72;6215993;28;20241;-59